Aviation Digital Data Service (ADDS)

Output produced by METARs form (0821 UTC 18 February 2019)
found at http://www.aviationweather.gov/metar/data/
 
METAR text: SBSP 180800Z AUTO 34003KT CAVOK 20/18 Q1015
Conditions at: SBSP (SAO PAULO/CONGON, BR) observed 0800 UTC 18 February 2019
Temperature: 20.0°C (68°F)
Dewpoint: 18.0°C (64°F) [RH = 88%]
Pressure (altimeter): 29.97 inches Hg (1015.0 mb)
Winds: from the NNW (340 degrees) at 3 MPH (3 knots; 1.5 m/s)
Visibility: 6 or more miles (10+ km)
Ceiling: ceiling and visibility are OK
Clouds: unknown
Weather: no significant weather observed at this time

METAR text: SBSP 180700Z AUTO 33003KT 9000 NCD 20/19 Q1014
Conditions at: SBSP (SAO PAULO/CONGON, BR) observed 0700 UTC 18 February 2019
Temperature: 20.0°C (68°F)
Dewpoint: 19.0°C (66°F) [RH = 94%]
Pressure (altimeter): 29.94 inches Hg (1014.0 mb)
Winds: from the NNW (330 degrees) at 3 MPH (3 knots; 1.5 m/s)
Visibility: 6 miles ( 9 km)
Ceiling: at least 12,000 feet AGL
Clouds: sky clear below 12,000 feet AGL
Weather: no significant weather observed at this time

METAR text: SBSP 180600Z AUTO 33001KT 9999 // BKN230/// 21/19 Q1014
Conditions at: SBSP (SAO PAULO/CONGON, BR) observed 0600 UTC 18 February 2019
Temperature: 21.0°C (70°F)
Dewpoint: 19.0°C (66°F) [RH = 88%]
Pressure (altimeter): 29.94 inches Hg (1014.0 mb)
Winds: from the NNW (330 degrees) at 1 MPH (1 knots; 0.5 m/s)
Visibility: 6 or more miles (10+ km)
Ceiling: 23000 feet AGL
Clouds: broken clouds at 23000 feet AGL
Weather: no significant weather observed at this time

METAR text: SBSP 180500Z AUTO 04004KT CAVOK 21/19 Q1015
Conditions at: SBSP (SAO PAULO/CONGON, BR) observed 0500 UTC 18 February 2019
Temperature: 21.0°C (70°F)
Dewpoint: 19.0°C (66°F) [RH = 88%]
Pressure (altimeter): 29.97 inches Hg (1015.0 mb)
Winds: from the NE (40 degrees) at 5 MPH (4 knots; 2.1 m/s)
Visibility: 6 or more miles (10+ km)
Ceiling: ceiling and visibility are OK
Clouds: unknown
Weather: no significant weather observed at this time

METAR text: SBSP 180400Z AUTO 04006KT 9999 FEW008 21/19 Q1015
Conditions at: SBSP (SAO PAULO/CONGON, BR) observed 0400 UTC 18 February 2019
Temperature: 21.0°C (70°F)
Dewpoint: 19.0°C (66°F) [RH = 88%]
Pressure (altimeter): 29.97 inches Hg (1015.0 mb)
Winds: from the NE (40 degrees) at 7 MPH (6 knots; 3.1 m/s)
Visibility: 6 or more miles (10+ km)
Ceiling: at least 12,000 feet AGL
Clouds: few clouds at 800 feet AGL
Weather: no significant weather observed at this time

METAR text: SBSP 180300Z AUTO 05004KT 7000 // SCT007/// 21/19 Q1016
Conditions at: SBSP (SAO PAULO/CONGON, BR) observed 0300 UTC 18 February 2019
Temperature: 21.0°C (70°F)
Dewpoint: 19.0°C (66°F) [RH = 88%]
Pressure (altimeter): 30.00 inches Hg (1016.0 mb)
Winds: from the NE (50 degrees) at 5 MPH (4 knots; 2.1 m/s)
Visibility: 4 miles ( 7 km)
Ceiling: at least 12,000 feet AGL
Clouds: scattered clouds at 700 feet AGL
Weather: no significant weather observed at this time

METAR text: SBSP 180212Z AUTO 06004KT 6000 // BKN007/// 21/19 Q1016
Conditions at: SBSP (SAO PAULO/CONGON, BR) observed 0212 UTC 18 February 2019
Temperature: 21.0°C (70°F)
Dewpoint: 19.0°C (66°F) [RH = 88%]
Pressure (altimeter): 30.00 inches Hg (1016.0 mb)
Winds: from the ENE (60 degrees) at 5 MPH (4 knots; 2.1 m/s)
Visibility: 4 miles ( 6 km)
Ceiling: 700 feet AGL
Clouds: broken clouds at 700 feet AGL
Weather: no significant weather observed at this time

METAR text: SBSP 180201Z 07003KT 030V100 6000 FEW007 21/19 Q1016
Conditions at: SBSP (SAO PAULO/CONGON, BR) observed 0201 UTC 18 February 2019
Temperature: 21.0°C (70°F)
Dewpoint: 19.0°C (66°F) [RH = 88%]
Pressure (altimeter): 30.00 inches Hg (1016.0 mb)
Winds: from the ENE (70 degrees) at 3 MPH (3 knots; 1.5 m/s)
Visibility: 4 miles ( 6 km)
Ceiling: at least 12,000 feet AGL
Clouds: few clouds at 700 feet AGL
Weather: no significant weather observed at this time

METAR text: SBSP 180200Z 07005KT 4000 BR SCT007 21/19 Q1016
Conditions at: SBSP (SAO PAULO/CONGON, BR) observed 0200 UTC 18 February 2019
Temperature: 21.0°C (70°F)
Dewpoint: 19.0°C (66°F) [RH = 88%]
Pressure (altimeter): 30.00 inches Hg (1016.0 mb)
Winds: from the ENE (70 degrees) at 6 MPH (5 knots; 2.6 m/s)
Visibility: 2.49 miles (4.01 km)
Ceiling: at least 12,000 feet AGL
Clouds: scattered clouds at 700 feet AGL
Weather: BR  (mist)

METAR text: SBSP 180100Z 12004KT 5000 BR BKN007 21/19 Q1016
Conditions at: SBSP (SAO PAULO/CONGON, BR) observed 0100 UTC 18 February 2019
Temperature: 21.0°C (70°F)
Dewpoint: 19.0°C (66°F) [RH = 88%]
Pressure (altimeter): 30.00 inches Hg (1016.0 mb)
Winds: from the ESE (120 degrees) at 5 MPH (4 knots; 2.1 m/s)
Visibility: 3 miles ( 5 km)
Ceiling: 700 feet AGL
Clouds: broken clouds at 700 feet AGL
Weather: BR  (mist)

METAR text: SBSP 180000Z 14005KT 5000 BR BKN009 21/19 Q1016
Conditions at: SBSP (SAO PAULO/CONGON, BR) observed 0000 UTC 18 February 2019
Temperature: 21.0°C (70°F)
Dewpoint: 19.0°C (66°F) [RH = 88%]
Pressure (altimeter): 30.00 inches Hg (1016.0 mb)
Winds: from the SE (140 degrees) at 6 MPH (5 knots; 2.6 m/s)
Visibility: 3 miles ( 5 km)
Ceiling: 900 feet AGL
Clouds: broken clouds at 900 feet AGL
Weather: BR  (mist)

METAR text: SBSP 172322Z 16005KT 5000 BR BKN010 22/19 Q1015
Conditions at: SBSP (SAO PAULO/CONGON, BR) observed 2322 UTC 17 February 2019
Temperature: 22.0°C (72°F)
Dewpoint: 19.0°C (66°F) [RH = 83%]
Pressure (altimeter): 29.97 inches Hg (1015.0 mb)
Winds: from the SSE (160 degrees) at 6 MPH (5 knots; 2.6 m/s)
Visibility: 3 miles ( 5 km)
Ceiling: 1000 feet AGL
Clouds: broken clouds at 1000 feet AGL
Weather: BR  (mist)

METAR text: SBSP 172300Z 12005KT 7000 FEW025 22/20 Q1015
Conditions at: SBSP (SAO PAULO/CONGON, BR) observed 2300 UTC 17 February 2019
Temperature: 22.0°C (72°F)
Dewpoint: 20.0°C (68°F) [RH = 88%]
Pressure (altimeter): 29.97 inches Hg (1015.0 mb)
Winds: from the ESE (120 degrees) at 6 MPH (5 knots; 2.6 m/s)
Visibility: 4 miles ( 7 km)
Ceiling: at least 12,000 feet AGL
Clouds: few clouds at 2500 feet AGL
Weather: no significant weather observed at this time

METAR text: SBSP 172200Z 02002KT 9999 FEW030 SCT080 24/18 Q1015
Conditions at: SBSP (SAO PAULO/CONGON, BR) observed 2200 UTC 17 February 2019
Temperature: 24.0°C (75°F)
Dewpoint: 18.0°C (64°F) [RH = 69%]
Pressure (altimeter): 29.97 inches Hg (1015.0 mb)
Winds: from the NNE (20 degrees) at 2 MPH (2 knots; 1.0 m/s)
Visibility: 6 or more miles (10+ km)
Ceiling: at least 12,000 feet AGL
Clouds: few clouds at 3000 feet AGL
scattered clouds at 8000 feet AGL
Weather: no significant weather observed at this time

METAR text: SBSP 172100Z 33006KT 9999 FEW030 BKN070 24/18 Q1014
Conditions at: SBSP (SAO PAULO/CONGON, BR) observed 2100 UTC 17 February 2019
Temperature: 24.0°C (75°F)
Dewpoint: 18.0°C (64°F) [RH = 69%]
Pressure (altimeter): 29.94 inches Hg (1014.0 mb)
Winds: from the NNW (330 degrees) at 7 MPH (6 knots; 3.1 m/s)
Visibility: 6 or more miles (10+ km)
Ceiling: 7000 feet AGL
Clouds: few clouds at 3000 feet AGL
broken clouds at 7000 feet AGL
Weather: no significant weather observed at this time

METAR text: SBSP 172000Z 33007KT 9999 FEW030 BKN100 24/17 Q1013
Conditions at: SBSP (SAO PAULO/CONGON, BR) observed 2000 UTC 17 February 2019
Temperature: 24.0°C (75°F)
Dewpoint: 17.0°C (63°F) [RH = 65%]
Pressure (altimeter): 29.91 inches Hg (1013.0 mb)
Winds: from the NNW (330 degrees) at 8 MPH (7 knots; 3.6 m/s)
Visibility: 6 or more miles (10+ km)
Ceiling: 10000 feet AGL
Clouds: few clouds at 3000 feet AGL
broken clouds at 10000 feet AGL
Weather: no significant weather observed at this time

METAR text: SBSP 171900Z 32009KT 9999 FEW026 BKN090 25/18 Q1013
Conditions at: SBSP (SAO PAULO/CONGON, BR) observed 1900 UTC 17 February 2019
Temperature: 25.0°C (77°F)
Dewpoint: 18.0°C (64°F) [RH = 65%]
Pressure (altimeter): 29.91 inches Hg (1013.0 mb)
Winds: from the NW (320 degrees) at 10 MPH (9 knots; 4.6 m/s)
Visibility: 6 or more miles (10+ km)
Ceiling: 9000 feet AGL
Clouds: few clouds at 2600 feet AGL
broken clouds at 9000 feet AGL
Weather: no significant weather observed at this time

METAR text: SBSP 171800Z 32010KT 9999 SCT026 SCT045 BKN100 25/19 Q1014
Conditions at: SBSP (SAO PAULO/CONGON, BR) observed 1800 UTC 17 February 2019
Temperature: 25.0°C (77°F)
Dewpoint: 19.0°C (66°F) [RH = 69%]
Pressure (altimeter): 29.94 inches Hg (1014.0 mb)
Winds: from the NW (320 degrees) at 12 MPH (10 knots; 5.1 m/s)
Visibility: 6 or more miles (10+ km)
Ceiling: 10000 feet AGL
Clouds: scattered clouds at 2600 feet AGL
scattered clouds at 4500 feet AGL
broken clouds at 10000 feet AGL
Weather: no significant weather observed at this time

METAR text: SBSP 171700Z 31008KT 9999 SCT024 SCT033 BKN045 25/18 Q1014
Conditions at: SBSP (SAO PAULO/CONGON, BR) observed 1700 UTC 17 February 2019
Temperature: 25.0°C (77°F)
Dewpoint: 18.0°C (64°F) [RH = 65%]
Pressure (altimeter): 29.94 inches Hg (1014.0 mb)
Winds: from the NW (310 degrees) at 9 MPH (8 knots; 4.1 m/s)
Visibility: 6 or more miles (10+ km)
Ceiling: 4500 feet AGL
Clouds: scattered clouds at 2400 feet AGL
scattered clouds at 3300 feet AGL
broken clouds at 4500 feet AGL
Weather: no significant weather observed at this time

METAR text: SBSP 171600Z 33007KT 9999 SCT023 BKN040 24/19 Q1015
Conditions at: SBSP (SAO PAULO/CONGON, BR) observed 1600 UTC 17 February 2019
Temperature: 24.0°C (75°F)
Dewpoint: 19.0°C (66°F) [RH = 74%]
Pressure (altimeter): 29.97 inches Hg (1015.0 mb)
Winds: from the NNW (330 degrees) at 8 MPH (7 knots; 3.6 m/s)
Visibility: 6 or more miles (10+ km)
Ceiling: 4000 feet AGL
Clouds: scattered clouds at 2300 feet AGL
broken clouds at 4000 feet AGL
Weather: no significant weather observed at this time

METAR text: SBSP 171500Z 32007KT 280V350 9999 BKN019 OVC037 24/19 Q1015
Conditions at: SBSP (SAO PAULO/CONGON, BR) observed 1500 UTC 17 February 2019
Temperature: 24.0°C (75°F)
Dewpoint: 19.0°C (66°F) [RH = 74%]
Pressure (altimeter): 29.97 inches Hg (1015.0 mb)
Winds: from the NW (320 degrees) at 8 MPH (7 knots; 3.6 m/s)
Visibility: 6 or more miles (10+ km)
Ceiling: 1900 feet AGL
Clouds: broken clouds at 1900 feet AGL
overcast cloud deck at 3700 feet AGL
Weather: no significant weather observed at this time

METAR text: SBSP 171400Z 31006KT 260V350 9999 BKN015 BKN033 23/19 Q1015
Conditions at: SBSP (SAO PAULO/CONGON, BR) observed 1400 UTC 17 February 2019
Temperature: 23.0°C (73°F)
Dewpoint: 19.0°C (66°F) [RH = 78%]
Pressure (altimeter): 29.97 inches Hg (1015.0 mb)
Winds: from the NW (310 degrees) at 7 MPH (6 knots; 3.1 m/s)
Visibility: 6 or more miles (10+ km)
Ceiling: 1500 feet AGL
Clouds: broken clouds at 1500 feet AGL
broken clouds at 3300 feet AGL
Weather: no significant weather observed at this time

METAR text: SBSP 171343Z 31007KT 260V350 9999 SCT011 BKN017 23/19 Q1015
Conditions at: SBSP (SAO PAULO/CONGON, BR) observed 1343 UTC 17 February 2019
Temperature: 23.0°C (73°F)
Dewpoint: 19.0°C (66°F) [RH = 78%]
Pressure (altimeter): 29.97 inches Hg (1015.0 mb)
Winds: from the NW (310 degrees) at 8 MPH (7 knots; 3.6 m/s)
Visibility: 6 or more miles (10+ km)
Ceiling: 1700 feet AGL
Clouds: scattered clouds at 1100 feet AGL
broken clouds at 1700 feet AGL
Weather: no significant weather observed at this time

METAR text: SBSP 171300Z 34007KT 310V010 9999 BKN011 BKN017 22/19 Q1015
Conditions at: SBSP (SAO PAULO/CONGON, BR) observed 1300 UTC 17 February 2019
Temperature: 22.0°C (72°F)
Dewpoint: 19.0°C (66°F) [RH = 83%]
Pressure (altimeter): 29.97 inches Hg (1015.0 mb)
Winds: from the NNW (340 degrees) at 8 MPH (7 knots; 3.6 m/s)
Visibility: 6 or more miles (10+ km)
Ceiling: 1100 feet AGL
Clouds: broken clouds at 1100 feet AGL
broken clouds at 1700 feet AGL
Weather: no significant weather observed at this time

METAR text: SBSP 171200Z 32007KT 270V340 9999 OVC009 21/18 Q1014
Conditions at: SBSP (SAO PAULO/CONGON, BR) observed 1200 UTC 17 February 2019
Temperature: 21.0°C (70°F)
Dewpoint: 18.0°C (64°F) [RH = 83%]
Pressure (altimeter): 29.94 inches Hg (1014.0 mb)
Winds: from the NW (320 degrees) at 8 MPH (7 knots; 3.6 m/s)
Visibility: 6 or more miles (10+ km)
Ceiling: 900 feet AGL
Clouds: overcast cloud deck at 900 feet AGL
Weather: no significant weather observed at this time

METAR text: SBSP 171100Z 31005KT 9000 BKN007 OVC013 20/19 Q1013
Conditions at: SBSP (SAO PAULO/CONGON, BR) observed 1100 UTC 17 February 2019
Temperature: 20.0°C (68°F)
Dewpoint: 19.0°C (66°F) [RH = 94%]
Pressure (altimeter): 29.91 inches Hg (1013.0 mb)
Winds: from the NW (310 degrees) at 6 MPH (5 knots; 2.6 m/s)
Visibility: 6 miles ( 9 km)
Ceiling: 700 feet AGL
Clouds: broken clouds at 700 feet AGL
overcast cloud deck at 1300 feet AGL
Weather: no significant weather observed at this time

METAR text: SBSP 171000Z 32005KT 9999 FEW006 OVC017 20/18 Q1013
Conditions at: SBSP (SAO PAULO/CONGON, BR) observed 1000 UTC 17 February 2019
Temperature: 20.0°C (68°F)
Dewpoint: 18.0°C (64°F) [RH = 88%]
Pressure (altimeter): 29.91 inches Hg (1013.0 mb)
Winds: from the NW (320 degrees) at 6 MPH (5 knots; 2.6 m/s)
Visibility: 6 or more miles (10+ km)
Ceiling: 1700 feet AGL
Clouds: few clouds at 600 feet AGL
overcast cloud deck at 1700 feet AGL
Weather: no significant weather observed at this time

METAR text: SBSP 170900Z 31004KT 9999 FEW007 OVC019 20/18 Q1013
Conditions at: SBSP (SAO PAULO/CONGON, BR) observed 0900 UTC 17 February 2019
Temperature: 20.0°C (68°F)
Dewpoint: 18.0°C (64°F) [RH = 88%]
Pressure (altimeter): 29.91 inches Hg (1013.0 mb)
Winds: from the NW (310 degrees) at 5 MPH (4 knots; 2.1 m/s)
Visibility: 6 or more miles (10+ km)
Ceiling: 1900 feet AGL
Clouds: few clouds at 700 feet AGL
overcast cloud deck at 1900 feet AGL
Weather: no significant weather observed at this time

METAR text: SBSP 170800Z AUTO 31002KT 9999 // FEW013/// SCT019/// OVC024/// 20/18 Q1012
Conditions at: SBSP (SAO PAULO/CONGON, BR) observed 0800 UTC 17 February 2019
Temperature: 20.0°C (68°F)
Dewpoint: 18.0°C (64°F) [RH = 88%]
Pressure (altimeter): 29.88 inches Hg (1012.0 mb)
Winds: from the NW (310 degrees) at 2 MPH (2 knots; 1.0 m/s)
Visibility: 6 or more miles (10+ km)
Ceiling: 2400 feet AGL
Clouds: few clouds at 1300 feet AGL
scattered clouds at 1900 feet AGL
overcast cloud deck at 2400 feet AGL
Weather: no significant weather observed at this time

METAR text: SBSP 170700Z AUTO 36004KT 9999 BKN015 BKN037 20/18 Q1012
Conditions at: SBSP (SAO PAULO/CONGON, BR) observed 0700 UTC 17 February 2019
Temperature: 20.0°C (68°F)
Dewpoint: 18.0°C (64°F) [RH = 88%]
Pressure (altimeter): 29.88 inches Hg (1012.0 mb)
Winds: from the N (360 degrees) at 5 MPH (4 knots; 2.1 m/s)
Visibility: 6 or more miles (10+ km)
Ceiling: 1500 feet AGL
Clouds: broken clouds at 1500 feet AGL
broken clouds at 3700 feet AGL
Weather: no significant weather observed at this time

METAR text: SBSP 170600Z AUTO 01004KT 340V040 9999 FEW008 BKN018 BKN02720/18 Q1012
Conditions at: SBSP (SAO PAULO/CONGON, BR) observed 0600 UTC 17 February 2019
Temperature: 20.0°C (68°F)
Dewpoint: 18.0°C (64°F) [RH = 88%]
Pressure (altimeter): 29.88 inches Hg (1012.0 mb)
Winds: from the N (10 degrees) at 5 MPH (4 knots; 2.1 m/s)
Visibility: 6 or more miles (10+ km)
Ceiling: 1800 feet AGL
Clouds: few clouds at 800 feet AGL
broken clouds at 1800 feet AGL
Weather: no significant weather observed at this time

METAR text: SBSP 170500Z AUTO 31003KT 9999 FEW036 BKN049 20/19 Q1012
Conditions at: SBSP (SAO PAULO/CONGON, BR) observed 0500 UTC 17 February 2019
Temperature: 20.0°C (68°F)
Dewpoint: 19.0°C (66°F) [RH = 94%]
Pressure (altimeter): 29.88 inches Hg (1012.0 mb)
Winds: from the NW (310 degrees) at 3 MPH (3 knots; 1.5 m/s)
Visibility: 6 or more miles (10+ km)
Ceiling: 4900 feet AGL
Clouds: few clouds at 3600 feet AGL
broken clouds at 4900 feet AGL
Weather: no significant weather observed at this time

METAR text: SBSP 170437Z AUTO 01005KT 310V070 9999 SCT005 SCT040 BKN049 21/19 Q1012
Conditions at: SBSP (SAO PAULO/CONGON, BR) observed 0437 UTC 17 February 2019
Temperature: 21.0°C (70°F)
Dewpoint: 19.0°C (66°F) [RH = 88%]
Pressure (altimeter): 29.88 inches Hg (1012.0 mb)
Winds: from the N (10 degrees) at 6 MPH (5 knots; 2.6 m/s)
Visibility: 6 or more miles (10+ km)
Ceiling: 4900 feet AGL
Clouds: scattered clouds at 500 feet AGL
scattered clouds at 4000 feet AGL
broken clouds at 4900 feet AGL
Weather: no significant weather observed at this time

METAR text: SBSP 170420Z AUTO 31003KT 9999 BKN005 OVC029 20/19 Q1012
Conditions at: SBSP (SAO PAULO/CONGON, BR) observed 0420 UTC 17 February 2019
Temperature: 20.0°C (68°F)
Dewpoint: 19.0°C (66°F) [RH = 94%]
Pressure (altimeter): 29.88 inches Hg (1012.0 mb)
Winds: from the NW (310 degrees) at 3 MPH (3 knots; 1.5 m/s)
Visibility: 6 or more miles (10+ km)
Ceiling: 500 feet AGL
Clouds: broken clouds at 500 feet AGL
overcast cloud deck at 2900 feet AGL
Weather: no significant weather observed at this time

METAR text: SBSP 170400Z AUTO VRB02KT 9999 OVC028 20/19 Q1012
Conditions at: SBSP (SAO PAULO/CONGON, BR) observed 0400 UTC 17 February 2019
Temperature: 20.0°C (68°F)
Dewpoint: 19.0°C (66°F) [RH = 94%]
Pressure (altimeter): 29.88 inches Hg (1012.0 mb)
Winds: variable direction winds at 2 MPH (2 knots; 1.0 m/s)
Visibility: 6 or more miles (10+ km)
Ceiling: 2800 feet AGL
Clouds: overcast cloud deck at 2800 feet AGL
Weather: no significant weather observed at this time

METAR text: SBSP 170300Z AUTO 15003KT 9999 // FEW016/// SCT023/// OVC029///20/19 Q1013
Conditions at: SBSP (SAO PAULO/CONGON, BR) observed 0300 UTC 17 February 2019
Temperature: 20.0°C (68°F)
Dewpoint: 19.0°C (66°F) [RH = 94%]
Pressure (altimeter): 29.91 inches Hg (1013.0 mb)
Winds: from the SSE (150 degrees) at 3 MPH (3 knots; 1.5 m/s)
Visibility: 6 or more miles (10+ km)
Ceiling: at least 12,000 feet AGL
Clouds: few clouds at 1600 feet AGL
scattered clouds at 2300 feet AGL
Weather: no significant weather observed at this time

METAR text: SBSP 170231Z AUTO 15003KT 110V180 9999 FEW012 OVC015 20/19 Q1013
Conditions at: SBSP (SAO PAULO/CONGON, BR) observed 0231 UTC 17 February 2019
Temperature: 20.0°C (68°F)
Dewpoint: 19.0°C (66°F) [RH = 94%]
Pressure (altimeter): 29.91 inches Hg (1013.0 mb)
Winds: from the SSE (150 degrees) at 3 MPH (3 knots; 1.5 m/s)
Visibility: 6 or more miles (10+ km)
Ceiling: 1500 feet AGL
Clouds: few clouds at 1200 feet AGL
overcast cloud deck at 1500 feet AGL
Weather: no significant weather observed at this time

METAR text: SBSP 170201Z AUTO 13004KT 090V150 9999 OVC013 20/19 Q1014
Conditions at: SBSP (SAO PAULO/CONGON, BR) observed 0201 UTC 17 February 2019
Temperature: 20.0°C (68°F)
Dewpoint: 19.0°C (66°F) [RH = 94%]
Pressure (altimeter): 29.94 inches Hg (1014.0 mb)
Winds: from the SE (130 degrees) at 5 MPH (4 knots; 2.1 m/s)
Visibility: 6 or more miles (10+ km)
Ceiling: 1300 feet AGL
Clouds: overcast cloud deck at 1300 feet AGL
Weather: no significant weather observed at this time

METAR text: SBSP 170200Z AUTO 14004KT 9999 SCT012 BKN015 OVC018 20/19Q1014
Conditions at: SBSP (SAO PAULO/CONGON, BR) observed 0200 UTC 17 February 2019
Temperature: missing
Dewpoint: missing
Pressure (altimeter): 29.94 inches Hg (1014.0 mb)
Winds: from the SE (140 degrees) at 5 MPH (4 knots; 2.1 m/s)
Visibility: 6 or more miles (10+ km)
Ceiling: 1500 feet AGL
Clouds: scattered clouds at 1200 feet AGL
broken clouds at 1500 feet AGL
overcast cloud deck at 1800 feet AGL
Weather: no significant weather observed at this time

METAR text: SBSP 170127Z AUTO 16005KT 9999 -RA BKN012 20/19 Q1014
Conditions at: SBSP (SAO PAULO/CONGON, BR) observed 0127 UTC 17 February 2019
Temperature: 20.0°C (68°F)
Dewpoint: 19.0°C (66°F) [RH = 94%]
Pressure (altimeter): 29.94 inches Hg (1014.0 mb)
Winds: from the SSE (160 degrees) at 6 MPH (5 knots; 2.6 m/s)
Visibility: 6 or more miles (10+ km)
Ceiling: 1200 feet AGL
Clouds: broken clouds at 1200 feet AGL
Weather: -RA  (light rain)

METAR text: SBSP 170101Z 12005KT 9999 -RA FEW005 20/19 Q1013
Conditions at: SBSP (SAO PAULO/CONGON, BR) observed 0101 UTC 17 February 2019
Temperature: 20.0°C (68°F)
Dewpoint: 19.0°C (66°F) [RH = 94%]
Pressure (altimeter): 29.91 inches Hg (1013.0 mb)
Winds: from the ESE (120 degrees) at 6 MPH (5 knots; 2.6 m/s)
Visibility: 6 or more miles (10+ km)
Ceiling: at least 12,000 feet AGL
Clouds: few clouds at 500 feet AGL
Weather: -RA  (light rain)

METAR text: SBSP 170100Z 16004KT 8000 -RA SCT005 BKN008 BKN011 20/19 Q1014
Conditions at: SBSP (SAO PAULO/CONGON, BR) observed 0100 UTC 17 February 2019
Temperature: 20.0°C (68°F)
Dewpoint: 19.0°C (66°F) [RH = 94%]
Pressure (altimeter): 29.94 inches Hg (1014.0 mb)
Winds: from the SSE (160 degrees) at 5 MPH (4 knots; 2.1 m/s)
Visibility: 5 miles ( 8 km)
Ceiling: 800 feet AGL
Clouds: scattered clouds at 500 feet AGL
broken clouds at 800 feet AGL
broken clouds at 1100 feet AGL
Weather: -RA  (light rain)

METAR text: SBSP 170036Z 19005KT 8000 FEW005 BKN007 20/19 Q1014
Conditions at: SBSP (SAO PAULO/CONGON, BR) observed 0036 UTC 17 February 2019
Temperature: 20.0°C (68°F)
Dewpoint: 19.0°C (66°F) [RH = 94%]
Pressure (altimeter): 29.94 inches Hg (1014.0 mb)
Winds: from the S (190 degrees) at 6 MPH (5 knots; 2.6 m/s)
Visibility: 5 miles ( 8 km)
Ceiling: 700 feet AGL
Clouds: few clouds at 500 feet AGL
broken clouds at 700 feet AGL
Weather: no significant weather observed at this time

METAR text: SBSP 170000Z 06001KT 8000 -RA BKN009 20/19 Q1013
Conditions at: SBSP (SAO PAULO/CONGON, BR) observed 0000 UTC 17 February 2019
Temperature: 20.0°C (68°F)
Dewpoint: 19.0°C (66°F) [RH = 94%]
Pressure (altimeter): 29.91 inches Hg (1013.0 mb)
Winds: from the ENE (60 degrees) at 1 MPH (1 knots; 0.5 m/s)
Visibility: 5 miles ( 8 km)
Ceiling: 900 feet AGL
Clouds: broken clouds at 900 feet AGL
Weather: -RA  (light rain)

METAR text: SBSP 162300Z 03007KT 8000 -RA FEW027 BKN045 20/19 Q1012 RETSRA
Conditions at: SBSP (SAO PAULO/CONGON, BR) observed 2300 UTC 16 February 2019
Temperature: 20.0°C (68°F)
Dewpoint: 19.0°C (66°F) [RH = 94%]
Pressure (altimeter): 29.88 inches Hg (1012.0 mb)
Winds: from the NNE (30 degrees) at 8 MPH (7 knots; 3.6 m/s)
Visibility: 5 miles ( 8 km)
Ceiling: 4500 feet AGL
Clouds: few clouds at 2700 feet AGL
broken clouds at 4500 feet AGL
Weather: -RA  (light rain)

METAR text: SBSP 162241Z 03009KT 7000 -RA SCT015 SCT024 OVC045 20/19 Q1012 RETSRA
Conditions at: SBSP (SAO PAULO/CONGON, BR) observed 2241 UTC 16 February 2019
Temperature: 20.0°C (68°F)
Dewpoint: 19.0°C (66°F) [RH = 94%]
Pressure (altimeter): 29.88 inches Hg (1012.0 mb)
Winds: from the NNE (30 degrees) at 10 MPH (9 knots; 4.6 m/s)
Visibility: 4 miles ( 7 km)
Ceiling: 4500 feet AGL
Clouds: scattered clouds at 1500 feet AGL
scattered clouds at 2400 feet AGL
overcast cloud deck at 4500 feet AGL
Weather: -RA  (light rain)

METAR text: SBSP 162206Z 34001KT 2000 +TSRA BR SCT004 SCT019 BKN027 FEW030C B 20/19 Q1012
Conditions at: SBSP (SAO PAULO/CONGON, BR) observed 2206 UTC 16 February 2019
Temperature: 20.0°C (68°F)
Dewpoint: 19.0°C (66°F) [RH = 94%]
Pressure (altimeter): 29.88 inches Hg (1012.0 mb)
Winds: from the NNW (340 degrees) at 1 MPH (1 knots; 0.5 m/s)
Visibility: 1.24 miles (2.00 km)
Ceiling: 2700 feet AGL
Clouds: scattered clouds at 400 feet AGL
scattered clouds at 1900 feet AGL
broken clouds at 2700 feet AGL
Weather: +TSRA BR  (heavy rain associated with thunderstorm(s), mist)

METAR text: SBSP 162200Z 03004KT 5000 TSRA BR SCT004 BKN019 FEW030CB 20/19 Q1012 RERA
Conditions at: SBSP (SAO PAULO/CONGON, BR) observed 2200 UTC 16 February 2019
Temperature: 20.0°C (68°F)
Dewpoint: 19.0°C (66°F) [RH = 94%]
Pressure (altimeter): 29.88 inches Hg (1012.0 mb)
Winds: from the NNE (30 degrees) at 5 MPH (4 knots; 2.1 m/s)
Visibility: 3 miles ( 5 km)
Ceiling: 1900 feet AGL
Clouds: scattered clouds at 400 feet AGL
broken clouds at 1900 feet AGL
few clouds at 3000 feet AGL
Weather: TSRA BR  (rain associated with thunderstorm(s), mist)

METAR text: SBSP 162144Z 05003KT 2000 +TSRA BR SCT004 BKN008 FEW030CB 20/19 Q1012
Conditions at: SBSP (SAO PAULO/CONGON, BR) observed 2144 UTC 16 February 2019
Temperature: 20.0°C (68°F)
Dewpoint: 19.0°C (66°F) [RH = 94%]
Pressure (altimeter): 29.88 inches Hg (1012.0 mb)
Winds: from the NE (50 degrees) at 3 MPH (3 knots; 1.5 m/s)
Visibility: 1.24 miles (2.00 km)
Ceiling: 800 feet AGL
Clouds: scattered clouds at 400 feet AGL
broken clouds at 800 feet AGL
few clouds at 3000 feet AGL
Weather: +TSRA BR  (heavy rain associated with thunderstorm(s), mist)

METAR text: SBSP 162134Z 06004KT 7000 -RA BKN004 BKN019 OVC029 20/19 Q1012 WS R35
Conditions at: SBSP (SAO PAULO/CONGON, BR) observed 2134 UTC 16 February 2019
Temperature: 20.0°C (68°F)
Dewpoint: 19.0°C (66°F) [RH = 94%]
Pressure (altimeter): 29.88 inches Hg (1012.0 mb)
Winds: from the ENE (60 degrees) at 5 MPH (4 knots; 2.1 m/s)
Visibility: 4 miles ( 7 km)
Ceiling: 400 feet AGL
Clouds: broken clouds at 400 feet AGL
broken clouds at 1900 feet AGL
overcast cloud deck at 2900 feet AGL
Weather: -RA  (light rain)

METAR text: SBSP 162100Z 01011KT 6000 -DZ OVC006 21/19 Q1012
Conditions at: SBSP (SAO PAULO/CONGON, BR) observed 2100 UTC 16 February 2019
Temperature: 21.0°C (70°F)
Dewpoint: 19.0°C (66°F) [RH = 88%]
Pressure (altimeter): 29.88 inches Hg (1012.0 mb)
Winds: from the N (10 degrees) at 13 MPH (11 knots; 5.7 m/s)
Visibility: 4 miles ( 6 km)
Ceiling: 600 feet AGL
Clouds: overcast cloud deck at 600 feet AGL
Weather: -DZ  (light drizzle)

METAR text: SBSP 162049Z 17004KT 9999 4900N -DZ BKN007 OVC015 22/20 Q1011
Conditions at: SBSP (SAO PAULO/CONGON, BR) observed 2049 UTC 16 February 2019
Temperature: 22.0°C (72°F)
Dewpoint: 20.0°C (68°F) [RH = 88%]
Pressure (altimeter): 29.85 inches Hg (1011.0 mb)
Winds: from the S (170 degrees) at 5 MPH (4 knots; 2.1 m/s)
Visibility: 6 or more miles (10+ km)
Ceiling: 700 feet AGL
Clouds: broken clouds at 700 feet AGL
overcast cloud deck at 1500 feet AGL
Weather: -DZ  (light drizzle)

Forecast for: SBSP (SAO PAULO/CONGON, BR)
Text: TAF SBSP 180220Z 1806/1906 33005KT 8000 FEW010 TN21/1809Z TX25/1817Z
Forecast period: 0600 to 0900 UTC 18 February 2019
Forecast type: FROM: standard forecast or significant change
Winds: from the NNW (330 degrees) at 6 MPH (5 knots; 2.6 m/s)
Visibility: 5 miles (8 km)
Ceiling: at least 12,000 feet AGL
Clouds: few clouds at 1000 feet AGL
Weather: no significant weather forecast for this period
Text: BECMG 1809/1811 30010KT
Forecast period: 0900 to 1300 UTC 18 February 2019
Forecast type: BECOMING: Conditions expected to become as follows by 1100 UTC 18 February 2019
Winds: from the WNW (300 degrees) at 12 MPH (10 knots; 5.1 m/s)
Visibility: 5 miles (8 km)
Ceiling: at least 12,000 feet AGL
Clouds: few clouds at 1000 feet AGL
Weather: no significant weather forecast for this period
Text: BECMG 1813/1815 BKN035
Forecast period: 1300 to 1600 UTC 18 February 2019
Forecast type: BECOMING: Conditions expected to become as follows by 1500 UTC 18 February 2019
Winds: from the WNW (300 degrees) at 12 MPH (10 knots; 5.1 m/s)
Visibility: 5 miles (8 km)
Ceiling: 3500 feet AGL
Clouds: broken clouds at 3500 feet AGL
Weather: no significant weather forecast for this period
Text: BECMG 1816/1818 8000 RA SCT012 BKN018
Forecast period: 1600 to 2200 UTC 18 February 2019
Forecast type: BECOMING: Conditions expected to become as follows by 1800 UTC 18 February 2019
Winds: from the WNW (300 degrees) at 12 MPH (10 knots; 5.1 m/s)
Visibility: 5 miles (8 km)
Ceiling: 1800 feet AGL
Clouds: scattered clouds at 1200 feet AGL
broken clouds at 1800 feet AGL
Weather: RA  (moderate rain)
Text: PROB30 1818/1820 6000 TSRA BKN015 FEW035CB
Forecast period: 1800 to 2000 UTC 18 February 2019
Forecast type: PROBABLE: 30 percent likelihood of the following during this time
Visibility: 4 miles (6 km)
Ceiling: 1500 feet AGL
Clouds: broken clouds at 1500 feet AGL
few clouds at 3500 feet AGL
Weather: TSRA  (rain associated with thunderstorm(s))
Text: BECMG 1822/1824 34005KT 9999 NSW FEW010 SCT025 RMK PGG
Forecast period: 2200 UTC 18 February 2019 to 0600 UTC 19 February 2019
Forecast type: BECOMING: Conditions expected to become as follows by 0000 UTC 19 February 2019
Winds: from the NNW (340 degrees) at 6 MPH (5 knots; 2.6 m/s)
Visibility: 6 or more miles 10+ km)
Ceiling: at least 12,000 feet AGL
Clouds: few clouds at 1000 feet AGL
scattered clouds at 2500 feet AGL
Weather: NSW  (no significant weather)